createdAt,value
2022-10-19T00:01:06.195Z,60.59
2022-10-19T00:04:08.959Z,57.83
2022-10-19T00:07:11.011Z,55.57
2022-10-19T00:10:12.853Z,55.24
2022-10-19T00:13:14.677Z,58.89
2022-10-19T00:16:17.731Z,60.62
2022-10-19T00:19:20.909Z,59.50
2022-10-19T00:22:22.735Z,59.55
2022-10-19T00:25:24.553Z,58.92
2022-10-19T00:28:26.530Z,55.46
2022-10-19T00:31:28.424Z,54.20
2022-10-19T00:34:30.269Z,54.03
2022-10-19T00:37:32.049Z,53.92
2022-10-19T00:40:37.903Z,54.90
2022-10-19T00:43:52.115Z,56.81
2022-10-19T00:46:54.385Z,56.61
2022-10-19T00:49:56.362Z,60.79
2022-10-19T00:52:58.272Z,58.80
2022-10-19T00:56:00.484Z,57.87
2022-10-19T00:59:03.310Z,57.83
2022-10-19T01:02:05.901Z,59.26
2022-10-19T01:05:07.941Z,57.56
2022-10-19T01:08:09.880Z,58.03
2022-10-19T01:11:30.729Z,55.81
2022-10-19T01:14:51.360Z,55.28
2022-10-19T01:17:59.433Z,57.67
2022-10-19T01:21:03.779Z,58.43
2022-10-19T01:24:24.513Z,59.08
2022-10-19T01:27:26.494Z,57.38
2022-10-19T01:30:40.843Z,58.42
2022-10-19T01:34:01.274Z,57.38
2022-10-19T01:37:17.652Z,57.13
2022-10-19T01:40:19.393Z,57.28
2022-10-19T01:43:36.973Z,56.05
2022-10-19T01:46:43.896Z,56.95
2022-10-19T01:49:48.359Z,55.22
2022-10-19T01:52:50.149Z,55.96
2022-10-19T01:55:52.286Z,58.94
2022-10-19T01:58:54.760Z,57.20
2022-10-19T02:01:56.744Z,57.58
2022-10-19T02:04:58.626Z,55.75
2022-10-19T02:08:01.551Z,58.07
2022-10-19T02:11:03.769Z,56.80
2022-10-19T02:14:06.503Z,58.85
2022-10-19T02:17:09.232Z,60.52
2022-10-19T02:20:11.118Z,57.85
2022-10-19T02:23:13.657Z,61.19
2022-10-19T02:26:15.497Z,55.55
2022-10-19T02:29:17.389Z,59.37
2022-10-19T02:32:19.198Z,58.93
2022-10-19T02:35:21.028Z,59.38
2022-10-19T02:38:22.981Z,57.79
2022-10-19T02:41:27.464Z,58.44
2022-10-19T02:44:41.497Z,62.06
2022-10-19T02:47:45.281Z,62.12
2022-10-19T02:50:47.789Z,57.80
2022-10-19T02:53:49.598Z,58.03
2022-10-19T02:56:51.423Z,59.10
2022-10-19T02:59:53.293Z,59.76
2022-10-19T03:02:55.144Z,60.29
2022-10-19T03:05:56.924Z,58.09
2022-10-19T03:08:58.725Z,56.73
2022-10-19T03:12:00.549Z,55.67
2022-10-19T03:15:02.390Z,53.73
2022-10-19T03:18:04.318Z,56.07
2022-10-19T03:21:07.083Z,57.10
2022-10-19T03:24:08.882Z,55.76
2022-10-19T03:27:10.766Z,56.70
2022-10-19T03:30:12.563Z,56.70
2022-10-19T03:33:15.045Z,56.11
2022-10-19T03:36:27.515Z,56.60
2022-10-19T03:39:29.344Z,57.31
2022-10-19T03:42:31.305Z,55.35
2022-10-19T03:45:33.563Z,53.27
2022-10-19T03:48:35.498Z,53.52
2022-10-19T03:51:37.519Z,54.72
2022-10-19T03:54:39.567Z,53.33
2022-10-19T03:57:41.575Z,54.53
2022-10-19T04:00:43.435Z,56.13
2022-10-19T04:03:45.311Z,54.53
2022-10-19T04:06:47.846Z,54.10
2022-10-19T04:09:49.689Z,54.75
2022-10-19T04:12:53.862Z,55.25
2022-10-19T04:15:56.026Z,55.16
2022-10-19T04:18:58.178Z,55.61
2022-10-19T04:22:00.129Z,54.27
2022-10-19T04:25:01.926Z,52.29
2022-10-19T04:28:03.748Z,52.70
2022-10-19T04:31:05.997Z,53.65
2022-10-19T04:34:07.915Z,55.52
2022-10-19T04:37:09.717Z,57.06
2022-10-19T04:40:14.986Z,55.99
2022-10-19T04:43:17.108Z,54.00
2022-10-19T04:46:19.276Z,52.81
2022-10-19T04:49:21.142Z,53.02
2022-10-19T04:52:22.944Z,54.77
2022-10-19T04:55:24.780Z,55.89
2022-10-19T04:58:27.071Z,56.18
2022-10-19T05:01:30.101Z,56.33
2022-10-19T05:04:31.934Z,54.51
2022-10-19T05:07:34.028Z,53.51
2022-10-19T05:10:36.749Z,55.02
2022-10-19T05:13:38.674Z,56.63
2022-10-19T05:16:40.506Z,55.75
2022-10-19T05:19:42.482Z,55.46
2022-10-19T05:22:44.431Z,54.29
2022-10-19T05:25:46.344Z,55.14
2022-10-19T05:28:59.466Z,55.59
2022-10-19T05:32:01.324Z,55.51
2022-10-19T05:35:03.269Z,54.56
2022-10-19T05:38:05.352Z,57.44
2022-10-19T05:41:07.397Z,55.36
2022-10-19T05:44:10.444Z,56.86
2022-10-19T05:47:12.245Z,58.89
2022-10-19T05:50:14.112Z,57.32
2022-10-19T05:53:15.996Z,55.88
2022-10-19T05:56:18.993Z,55.69
2022-10-19T05:59:21.106Z,56.42
2022-10-19T06:02:23.085Z,54.82
2022-10-19T06:05:25.408Z,54.31
2022-10-19T06:08:27.255Z,53.37
2022-10-19T06:11:30.144Z,51.52
2022-10-19T06:14:31.980Z,51.78
2022-10-19T06:17:34.099Z,47.50
2022-10-19T06:20:37.143Z,46.72
2022-10-19T06:23:39.248Z,48.71
2022-10-19T06:26:41.208Z,48.65
2022-10-19T06:29:43.102Z,44.44
2022-10-19T06:32:45.076Z,45.10
2022-10-19T06:35:46.894Z,46.23
2022-10-19T06:38:48.969Z,43.16
2022-10-19T06:41:50.753Z,44.29
2022-10-19T06:44:52.657Z,42.17
2022-10-19T06:47:54.687Z,41.45
2022-10-19T06:51:02.773Z,41.50
2022-10-19T06:54:04.828Z,41.01
2022-10-19T06:57:08.123Z,39.89
2022-10-19T07:00:10.286Z,42.01
2022-10-19T07:03:12.088Z,37.88
2022-10-19T07:06:13.942Z,39.20
2022-10-19T07:09:16.346Z,41.70
2022-10-19T07:12:18.170Z,42.87
2022-10-19T07:15:20.041Z,39.16
2022-10-19T07:18:22.033Z,37.83
2022-10-19T07:21:23.991Z,38.14
2022-10-19T07:24:25.892Z,35.69
2022-10-19T07:27:27.816Z,43.49
2022-10-19T07:30:29.873Z,44.58
2022-10-19T07:33:31.737Z,45.82
2022-10-19T07:36:34.703Z,50.69
2022-10-19T07:39:36.774Z,49.56
2022-10-19T07:42:39.249Z,53.20
2022-10-19T07:45:41.237Z,52.92
2022-10-19T07:48:43.725Z,55.63
2022-10-19T07:51:46.090Z,52.35
2022-10-19T07:54:49.688Z,50.23
2022-10-19T07:57:51.639Z,53.28
2022-10-19T08:00:59.158Z,55.74
2022-10-19T08:07:23.497Z,52.18
2022-10-19T08:10:25.424Z,51.88
2022-10-19T08:13:27.264Z,52.94
2022-10-19T08:16:37.678Z,54.40
2022-10-19T08:19:43.723Z,52.97
2022-10-19T08:22:46.908Z,54.72
2022-10-19T08:25:49.508Z,51.89
2022-10-19T08:28:51.593Z,49.51
2022-10-19T08:31:53.404Z,50.58
2022-10-19T08:34:55.247Z,51.58
2022-10-19T08:37:58.767Z,52.92
2022-10-19T08:41:04.566Z,54.17
2022-10-19T08:44:12.772Z,53.96
2022-10-19T08:47:15.854Z,52.85
2022-10-19T08:50:23.820Z,50.97
2022-10-19T08:54:01.260Z,52.22
2022-10-19T08:57:06.858Z,49.78
2022-10-19T09:00:14.897Z,51.49
2022-10-19T09:03:31.975Z,49.20
2022-10-19T09:07:03.655Z,49.12
2022-10-19T09:10:05.847Z,48.47
2022-10-19T09:13:19.010Z,48.67
2022-10-19T09:16:21.616Z,48.99
2022-10-19T09:19:26.273Z,47.38
2022-10-19T09:22:32.970Z,47.09
2022-10-19T09:25:35.150Z,49.39
2022-10-19T09:28:58.688Z,47.62
2022-10-19T09:32:01.463Z,47.92
2022-10-19T09:35:05.021Z,47.92
2022-10-19T09:38:07.280Z,48.62
2022-10-19T09:41:27.329Z,48.79
2022-10-19T09:44:29.189Z,48.31
2022-10-19T09:47:40.974Z,46.17
2022-10-19T09:50:43.909Z,45.36
2022-10-19T09:53:55.148Z,44.31
2022-10-19T09:56:57.350Z,43.62
2022-10-19T09:59:59.186Z,44.93
2022-10-19T10:03:01.110Z,42.82
2022-10-19T10:06:04.707Z,44.88
2022-10-19T10:09:07.019Z,44.27
2022-10-19T10:12:09.043Z,42.53
2022-10-19T10:15:14.053Z,40.24
2022-10-19T10:18:16.971Z,39.46
2022-10-19T10:21:25.684Z,40.64
2022-10-19T10:24:29.254Z,39.28
2022-10-19T10:27:38.007Z,38.19
2022-10-19T10:30:39.914Z,40.35
2022-10-19T10:33:45.755Z,38.49
2022-10-19T10:36:51.500Z,38.38
2022-10-19T10:39:55.166Z,38.11
2022-10-19T10:43:01.909Z,40.15
2022-10-19T10:46:08.669Z,37.51
2022-10-19T10:49:17.524Z,36.80
2022-10-19T10:52:19.344Z,37.08
2022-10-19T10:55:21.179Z,38.03
2022-10-19T10:58:43.757Z,38.00
2022-10-19T11:01:48.772Z,37.44
2022-10-19T11:04:52.402Z,37.53
2022-10-19T11:08:24.161Z,35.10
2022-10-19T11:11:28.357Z,34.02
2022-10-19T11:14:49.949Z,33.02
2022-10-19T11:18:05.810Z,35.72
2022-10-19T11:21:20.929Z,33.06
2022-10-19T11:24:38.157Z,33.13
2022-10-19T11:27:59.331Z,31.46
2022-10-19T11:31:21.183Z,29.43
2022-10-19T11:34:26.513Z,32.06
2022-10-19T11:37:29.747Z,33.04
2022-10-19T11:40:45.843Z,35.91
2022-10-19T11:44:19.772Z,34.54
2022-10-19T11:47:42.203Z,35.65
2022-10-19T11:50:49.679Z,36.88
2022-10-19T11:54:19.229Z,37.17
2022-10-19T11:57:26.118Z,37.31
2022-10-19T12:00:38.698Z,37.28
2022-10-19T12:03:40.878Z,38.28
2022-10-19T12:06:42.691Z,38.39
2022-10-19T12:09:47.511Z,37.37
2022-10-19T12:12:50.114Z,36.32
2022-10-19T12:15:54.574Z,36.89
2022-10-19T12:18:58.493Z,36.94
2022-10-19T12:22:00.979Z,36.54
2022-10-19T12:25:03.136Z,35.98
2022-10-19T12:28:05.134Z,34.83
2022-10-19T12:31:07.194Z,34.07
2022-10-19T12:34:09.107Z,33.42
2022-10-19T12:37:12.730Z,32.67
2022-10-19T12:40:17.753Z,33.91
2022-10-19T12:43:20.826Z,34.49
2022-10-19T12:46:28.779Z,34.74
2022-10-19T12:49:30.537Z,32.68
2022-10-19T12:52:35.553Z,32.97
2022-10-19T12:55:40.269Z,33.77
2022-10-19T12:58:48.442Z,33.30
2022-10-19T13:01:50.406Z,31.87
2022-10-19T13:04:52.653Z,31.17
2022-10-19T13:07:54.669Z,25.57
2022-10-19T13:11:06.797Z,23.53
2022-10-19T13:14:34.948Z,21.96
2022-10-19T13:17:37.163Z,21.08
2022-10-19T13:23:46.681Z,19.07
2022-10-19T13:26:48.660Z,18.91
2022-10-19T13:29:50.528Z,22.29
2022-10-19T13:32:52.408Z,20.47
2022-10-19T13:36:00.609Z,22.04
2022-10-19T13:39:05.840Z,20.56
2022-10-19T13:42:19.193Z,24.78
2022-10-19T13:45:24.226Z,26.07
2022-10-19T13:48:29.053Z,29.43
2022-10-19T13:51:41.324Z,31.09
2022-10-19T13:54:43.220Z,32.00
2022-10-19T13:57:53.188Z,34.94
2022-10-19T14:01:19.857Z,36.00
2022-10-19T14:04:25.558Z,35.14
2022-10-19T14:07:31.073Z,34.86
2022-10-19T14:10:43.419Z,36.07
2022-10-19T14:14:06.883Z,36.75
2022-10-19T14:20:32.063Z,36.74
2022-10-19T14:23:39.914Z,36.27
2022-10-19T14:26:41.914Z,37.46
2022-10-19T14:29:45.741Z,36.72
2022-10-19T14:32:47.613Z,37.96
2022-10-19T14:35:49.656Z,38.31
2022-10-19T14:38:54.418Z,37.95
2022-10-19T14:41:56.659Z,39.06
2022-10-19T14:45:01.032Z,36.66
2022-10-19T14:48:04.030Z,38.53
2022-10-19T14:51:09.697Z,37.70
2022-10-19T14:54:13.453Z,38.17
2022-10-19T14:57:17.857Z,37.94
2022-10-19T15:00:21.303Z,36.50
2022-10-19T15:03:24.478Z,35.95
2022-10-19T15:06:33.046Z,36.36
2022-10-19T15:09:37.280Z,37.14
2022-10-19T15:12:46.038Z,37.51
2022-10-19T15:15:48.009Z,36.94
2022-10-19T15:18:50.313Z,37.32
2022-10-19T15:22:11.173Z,37.13
2022-10-19T15:25:13.193Z,38.40
2022-10-19T15:28:19.253Z,38.49
2022-10-19T15:31:24.923Z,38.26
2022-10-19T15:34:29.912Z,38.34
2022-10-19T15:37:31.828Z,37.38
2022-10-19T15:40:37.890Z,39.01
2022-10-19T15:43:44.942Z,37.78
2022-10-19T15:46:46.755Z,37.96
2022-10-19T15:49:52.989Z,38.18
2022-10-19T15:52:54.815Z,38.83
2022-10-19T15:55:57.325Z,39.38
2022-10-19T15:59:00.764Z,39.50
2022-10-19T16:02:02.653Z,40.26
2022-10-19T16:08:12.568Z,40.77
2022-10-19T16:11:18.244Z,39.98
2022-10-19T16:14:20.157Z,39.77
2022-10-19T16:17:22.178Z,40.12
2022-10-19T16:20:24.503Z,40.68
2022-10-19T16:23:26.744Z,38.76
2022-10-19T16:26:28.668Z,38.21
2022-10-19T16:29:30.593Z,38.86
2022-10-19T16:32:32.587Z,39.79
2022-10-19T16:35:35.182Z,38.48
2022-10-19T16:38:37.167Z,38.64
2022-10-19T16:41:39.456Z,39.38
2022-10-19T16:44:41.334Z,39.57
2022-10-19T16:47:43.401Z,41.55
2022-10-19T16:50:45.546Z,41.54
2022-10-19T16:53:47.386Z,40.67
2022-10-19T16:56:49.247Z,39.13
2022-10-19T17:02:58.983Z,40.14
2022-10-19T17:06:04.758Z,41.16
2022-10-19T17:12:29.086Z,40.64
2022-10-19T17:15:42.423Z,41.44
2022-10-19T17:18:45.615Z,41.04
2022-10-19T17:21:49.391Z,43.38
2022-10-19T17:24:51.534Z,43.09
2022-10-19T17:27:53.363Z,41.85
2022-10-19T17:30:55.411Z,43.02
2022-10-19T17:33:57.484Z,42.07
2022-10-19T17:36:59.559Z,43.04
2022-10-19T17:40:01.405Z,43.11
2022-10-19T17:43:03.190Z,42.98
2022-10-19T17:46:06.111Z,43.76
2022-10-19T17:49:08.084Z,44.95
2022-10-19T17:52:09.906Z,43.98
2022-10-19T17:55:13.147Z,43.90
2022-10-19T17:58:15.463Z,44.33
2022-10-19T18:01:18.467Z,43.42
2022-10-19T18:04:20.254Z,44.64
2022-10-19T18:07:25.641Z,44.76
2022-10-19T18:10:27.461Z,44.67
2022-10-19T18:13:29.461Z,44.32
2022-10-19T18:16:32.296Z,44.47
2022-10-19T18:19:34.103Z,44.63
2022-10-19T18:22:36.047Z,46.98
2022-10-19T18:25:53.518Z,45.23
2022-10-19T18:28:56.654Z,43.35
2022-10-19T18:31:58.677Z,43.75
2022-10-19T18:35:00.513Z,45.33
2022-10-19T18:38:02.817Z,45.01
2022-10-19T18:41:08.886Z,46.50
2022-10-19T18:44:11.964Z,46.57
2022-10-19T18:47:13.781Z,47.74
2022-10-19T18:50:17.532Z,47.11
2022-10-19T18:53:19.437Z,47.55
2022-10-19T18:56:21.943Z,50.33
2022-10-19T18:59:23.922Z,49.35
2022-10-19T19:02:34.750Z,47.87
2022-10-19T19:05:44.334Z,45.72
2022-10-19T19:08:46.274Z,48.03
2022-10-19T19:11:48.244Z,48.88
2022-10-19T19:14:50.117Z,48.11
2022-10-19T19:17:53.606Z,47.89
2022-10-19T19:20:55.390Z,46.14
2022-10-19T19:23:58.521Z,45.41
2022-10-19T19:27:00.390Z,48.28
2022-10-19T19:30:04.814Z,45.73
2022-10-19T19:33:06.691Z,46.17
2022-10-19T19:36:09.006Z,45.17
2022-10-19T19:39:10.845Z,44.92
2022-10-19T19:42:13.040Z,46.28
2022-10-19T19:45:14.818Z,46.33
2022-10-19T19:48:16.632Z,45.27
2022-10-19T19:51:20.079Z,44.09
2022-10-19T19:54:21.890Z,44.75
2022-10-19T19:57:23.769Z,43.62
2022-10-19T20:00:25.582Z,45.23
2022-10-19T20:03:27.400Z,46.75
2022-10-19T20:06:29.491Z,45.16
2022-10-19T20:09:31.399Z,45.38
2022-10-19T20:12:33.238Z,44.68
2022-10-19T20:15:38.797Z,45.97
2022-10-19T20:18:41.058Z,44.91
2022-10-19T20:21:43.116Z,46.20
2022-10-19T20:24:44.942Z,44.12
2022-10-19T20:27:46.797Z,43.26
2022-10-19T20:30:48.663Z,44.89
2022-10-19T20:33:50.460Z,45.28
2022-10-19T20:36:52.357Z,43.79
2022-10-19T20:39:54.201Z,45.62
2022-10-19T20:42:56.594Z,45.64
2022-10-19T20:46:17.822Z,46.45
2022-10-19T20:49:19.672Z,45.76
2022-10-19T20:52:21.499Z,44.90
2022-10-19T20:55:23.283Z,45.54
2022-10-19T20:58:25.096Z,45.58
2022-10-19T21:01:27.256Z,46.33
2022-10-19T21:04:29.197Z,44.86
2022-10-19T21:07:31.014Z,46.54
2022-10-19T21:10:32.800Z,45.65
2022-10-19T21:13:34.732Z,46.76
2022-10-19T21:16:37.802Z,46.49
2022-10-19T21:19:39.788Z,45.93
2022-10-19T21:22:41.838Z,46.20
2022-10-19T21:25:52.193Z,45.22
2022-10-19T21:28:54.194Z,46.04
2022-10-19T21:31:56.117Z,45.34
2022-10-19T21:34:57.933Z,47.45
2022-10-19T21:38:00.075Z,45.50
2022-10-19T21:41:12.341Z,44.28
2022-10-19T21:44:14.763Z,43.12
2022-10-19T21:47:16.628Z,44.59
2022-10-19T21:50:19.841Z,45.78
2022-10-19T21:53:23.599Z,44.78
2022-10-19T21:56:25.408Z,43.83
2022-10-19T21:59:27.223Z,45.11
2022-10-19T22:02:29.010Z,44.29
2022-10-19T22:05:30.787Z,46.15
2022-10-19T22:08:32.644Z,48.40
2022-10-19T22:11:34.498Z,47.24
2022-10-19T22:14:36.323Z,46.52
2022-10-19T22:17:38.215Z,45.03
2022-10-19T22:20:40.372Z,45.41
2022-10-19T22:23:42.461Z,45.38
2022-10-19T22:26:45.385Z,45.40
2022-10-19T22:29:47.296Z,44.92
2022-10-19T22:32:49.107Z,46.73
2022-10-19T22:36:00.420Z,45.03
2022-10-19T22:39:02.250Z,45.88
2022-10-19T22:42:41.981Z,46.85
2022-10-19T22:45:46.643Z,48.77
2022-10-19T22:48:48.505Z,48.58
2022-10-19T22:51:50.344Z,50.98
2022-10-19T22:54:52.236Z,50.92
2022-10-19T22:57:54.106Z,50.06
2022-10-19T23:00:59.868Z,49.74
2022-10-19T23:04:01.791Z,51.63
2022-10-19T23:07:03.696Z,49.18
2022-10-19T23:10:05.943Z,49.19
2022-10-19T23:13:09.626Z,51.29
2022-10-19T23:16:11.582Z,51.98
2022-10-19T23:19:13.405Z,52.43
2022-10-19T23:22:15.338Z,47.62
2022-10-19T23:25:17.152Z,46.43
2022-10-19T23:28:18.981Z,46.41
2022-10-19T23:31:24.576Z,47.24
2022-10-19T23:34:26.415Z,46.84
2022-10-19T23:37:28.321Z,47.32
2022-10-19T23:40:30.118Z,47.33
2022-10-19T23:43:32.032Z,47.47
2022-10-19T23:46:33.950Z,49.37
2022-10-19T23:49:35.838Z,49.24
2022-10-19T23:52:37.651Z,51.89
2022-10-19T23:55:39.481Z,52.91
2022-10-19T23:58:41.478Z,50.32
